首页
METAR-TAF:

METAR-TAF

机场 :

楠迪國際機場

楠迪, 斐濟

纬度: 17-45S, 经度: 177-27E, 海拔: 13米

当前天气观测

该预报发布于11分钟前的00:00 UTC
风速11节,风向西转西南
温度 27°C
湿度 70%
气压 1013 hPa
能见度10公里或以上
散云层高于3000英尺
散云层高于5000英尺

METAR: NFFN 170000Z 25011KT 9999 SCT030 SCT050 27/21 Q1013 NOSIG

时间: 12:11 (00:11 UTC)

预报

该预报发布于47分钟前的23:24 UTC
预报有效从17日的 00点(UTC)到 17日的 24点(UTC)
风速12节,风向西
能见度10公里或以上
少量云层高于2800英尺
散云层高于4500英尺
成为
从 17日的 04点(UTC)到 17日的 06点(UTC)
风速5节,风向
成为
从 17日的 22点(UTC)到 17日的 24点(UTC)
风速10节,风向西

TAF: NFFN 162324Z 1700/1724 26012KT 9999 FEW028 SCT045 BECMG 1704/1706 10005KT BECMG 1722/1724 27010KT

超过4000个机场的气象观测和天气预报(METAR&TAF报告)。

可查询的气象台以黄色和红色小点在地图上表示。

将鼠标移到小点上方,可查看气象台名称。

然后点击查看天气观测和预报。

如需切换地图:点击带黑十字的绿色按钮放大地图;点击带横线的绿色按钮缩小地图;或者点击绿色箭头查看邻近地区的地图。


METAR-TAF: